Time;durP1;ratioP1;P1;durP2;ratioP2;P2;SDS_P1;SDS_P2;PMS_P1;PMS_P2;Temp;Humidity;BMP_temperature;BMP_pressure;BME280_temperature;BME280_humidity;BME280_pressure;Samples;Min_cycle;Max_cycle;Signal;HPM_P1;HPM_P2
2023/04/16 00:00:27;1705099.00;5.68;3035.34;163751.00;0.55;283.50;;;;;13.70;1.00;;;;;;2279884;61;1055;-88
2023/04/16 00:02:54;1546554.00;5.16;2731.03;190529.00;0.64;329.62;;;;;13.70;1.00;;;;;;2279898;61;1772;-87
2023/04/16 00:05:21;957323.00;3.19;1657.03;136376.00;0.45;236.32;;;;;13.50;1.00;;;;;;2279890;61;1191;-88
2023/04/16 00:10:25;727455.00;2.42;1254.88;97036.00;0.32;168.46;;;;;13.40;1.00;;;;;;2019052;59;2912;-87
2023/04/16 00:12:52;424715.00;1.42;732.30;101233.00;0.34;175.70;;;;;13.60;1.00;;;;;;2283755;55;3796;-86
2023/04/16 00:15:19;317995.00;1.06;548.85;0.00;0.00;0.62;;;;;13.70;1.00;;;;;;2284029;60;1042;-87
2023/04/16 00:17:46;164554.00;0.55;284.89;0.00;0.00;0.62;;;;;13.70;1.00;;;;;;2284053;60;1586;-87
2023/04/16 00:20:13;287283.00;0.96;496.06;0.00;0.00;0.62;;;;;13.70;1.00;;;;;;2284716;60;985;-89
2023/04/16 00:22:40;363440.00;1.21;626.96;0.00;0.00;0.62;;;;;13.60;1.00;;;;;;2284506;60;1333;-88
2023/04/16 00:25:07;307177.00;1.02;530.26;0.00;0.00;0.62;;;;;13.40;1.00;;;;;;2284710;60;1565;-88
2023/04/16 00:27:36;203179.00;0.68;351.40;0.00;0.00;0.62;;;;;13.50;1.00;;;;;;2284534;60;924;-88
2023/04/16 00:30:03;378433.00;1.26;652.73;0.00;0.00;0.62;;;;;13.70;1.00;;;;;;2284538;60;1599;-86
2023/04/16 00:32:31;213086.00;0.71;368.45;0.00;0.00;0.62;;;;;13.60;1.00;;;;;;2284590;60;1919;-87
2023/04/16 00:34:58;312904.00;1.04;540.10;0.00;0.00;0.62;;;;;13.50;1.00;;;;;;2284634;60;1701;-88
2023/04/16 00:37:25;149462.00;0.50;258.88;0.00;0.00;0.62;;;;;13.50;1.00;;;;;;2284424;60;1668;-88
2023/04/16 00:39:52;305183.00;1.02;526.83;0.00;0.00;0.62;;;;;13.60;1.00;;;;;;2284594;60;2277;-88
2023/04/16 00:42:19;265797.00;0.89;459.12;0.00;0.00;0.62;;;;;13.50;1.00;;;;;;2284375;60;1328;-88
2023/04/16 00:44:47;896097.00;2.99;1549.27;67656.00;0.23;117.71;;;;;13.30;1.00;;;;;;2284539;60;1118;-89
2023/04/16 00:47:15;1729352.00;5.76;3082.60;221790.00;0.74;383.42;;;;;13.30;1.00;;;;;;2284612;60;1616;-89
2023/04/16 00:49:42;1250274.00;4.17;2181.38;177888.00;0.59;307.85;;;;;13.50;1.00;;;;;;2284552;60;2200;-86
2023/04/16 00:52:10;514755.00;1.72;887.23;101928.00;0.34;176.90;;;;;13.40;1.00;;;;;;2284367;60;1396;-88
2023/04/16 00:57:07;724623.00;2.42;1249.96;0.00;0.00;0.62;;;;;13.30;1.00;;;;;;2281939;61;1431;-88
2023/04/16 00:59:34;362737.00;1.21;625.75;0.00;0.00;0.62;;;;;13.50;1.00;;;;;;2280331;61;1017;-87
2023/04/16 01:04:36;848082.00;2.83;1465.11;0.00;0.00;0.62;;;;;13.60;1.00;;;;;;2282180;61;1440;-89
2023/04/16 01:07:03;103930.00;0.35;180.36;0.00;0.00;0.62;;;;;13.80;1.00;;;;;;2280231;61;1630;-88
2023/04/16 01:09:30;264061.00;0.88;456.13;0.00;0.00;0.62;;;;;13.80;1.00;;;;;;2280390;61;1720;-91
2023/04/16 01:11:58;452613.00;1.51;780.28;0.00;0.00;0.62;;;;;13.90;1.00;;;;;;2311456;56;3790;-89
2023/04/16 01:14:27;333475.00;1.11;575.46;0.00;0.00;0.62;;;;;13.90;1.00;;;;;;2284278;60;1989;-89
2023/04/16 01:16:54;328283.00;1.09;566.53;0.00;0.00;0.62;;;;;13.80;1.00;;;;;;2284242;60;958;-88
2023/04/16 01:19:21;543926.00;1.81;937.49;0.00;0.00;0.62;;;;;13.80;1.00;;;;;;2292412;55;3777;-87
2023/04/16 01:24:17;576291.00;1.92;993.30;0.00;0.00;0.62;;;;;13.80;1.00;;;;;;2285914;60;1335;-89
2023/04/16 01:26:44;280923.00;0.94;485.12;0.00;0.00;0.62;;;;;13.80;1.00;;;;;;2300602;40;3569;-89
2023/04/16 01:29:12;400784.00;1.34;691.15;0.00;0.00;0.62;;;;;13.70;1.00;;;;;;2286365;55;3756;-89
2023/04/16 01:31:39;265084.00;0.88;457.89;0.00;0.00;0.62;;;;;13.90;1.00;;;;;;2284429;60;1421;-88
2023/04/16 01:34:06;392759.00;1.31;677.36;0.00;0.00;0.62;;;;;13.90;1.00;;;;;;2294142;55;3571;-87
2023/04/16 01:36:33;589847.00;1.97;1016.69;0.00;0.00;0.62;;;;;13.90;1.00;;;;;;2284053;60;1980;-89
2023/04/16 01:39:00;328823.00;1.10;567.46;0.00;0.00;0.62;;;;;13.90;1.00;;;;;;2284295;60;1250;-88
2023/04/16 01:41:29;493029.00;1.64;849.82;11627.00;0.04;20.77;;;;;13.90;1.00;;;;;;2284221;60;1596;-89
2023/04/16 01:43:56;960504.00;3.20;1662.64;24552.00;0.08;43.15;;;;;13.90;1.00;;;;;;2284364;60;1065;-88
2023/04/16 01:46:28;1547210.00;5.16;2732.27;108410.00;0.36;188.09;;;;;13.80;1.00;;;;;;2318018;55;3756;-90
2023/04/16 01:51:28;1941850.00;6.47;3505.60;97605.00;0.33;169.44;;;;;14.00;1.00;;;;;;2293577;55;3694;-88
2023/04/16 01:53:57;1280757.00;4.27;2236.93;124753.00;0.42;216.28;;;;;14.10;1.00;;;;;;2288307;60;1921;-88
2023/04/16 01:56:24;1817946.00;6.06;3256.96;167606.00;0.56;290.14;;;;;13.90;1.00;;;;;;2287419;55;3758;-88
2023/04/16 01:58:53;804690.00;2.68;1389.30;96803.00;0.32;168.05;;;;;13.80;1.00;;;;;;2299306;39;3572;-87
2023/04/16 02:01:20;580693.00;1.94;1000.89;89331.00;0.30;155.15;;;;;13.70;1.00;;;;;;2284377;60;1804;-87
2023/04/16 02:03:48;302783.00;1.01;522.70;90091.00;0.30;156.46;;;;;13.70;1.00;;;;;;2284382;60;1554;-89
2023/04/16 02:06:15;453650.00;1.51;782.06;94357.00;0.31;163.83;;;;;13.70;1.00;;;;;;2284357;60;1625;-87
2023/04/16 02:08:42;344339.00;1.15;594.13;0.00;0.00;0.62;;;;;13.80;1.00;;;;;;2284249;60;897;-88
2023/04/16 02:11:10;333378.00;1.11;575.29;0.00;0.00;0.62;;;;;14.00;1.00;;;;;;2342775;39;3617;-89
2023/04/16 02:13:37;498881.00;1.66;859.90;0.00;0.00;0.62;;;;;13.90;1.00;;;;;;2308407;40;3668;-89
2023/04/16 02:16:06;266491.00;0.89;460.31;0.00;0.00;0.62;;;;;13.90;1.00;;;;;;2284156;60;1688;-90
2023/04/16 02:18:34;249672.00;0.83;431.39;0.00;0.00;0.62;;;;;14.00;1.00;;;;;;2286894;39;3568;-89
2023/04/16 02:21:01;613429.00;2.04;1057.41;0.00;0.00;0.62;;;;;13.80;1.00;;;;;;2284033;60;1632;-89
2023/04/16 02:25:58;771701.00;2.57;1331.81;0.00;0.00;0.62;;;;;13.80;1.00;;;;;;2294769;56;3674;-87
2023/04/16 02:30:57;704909.00;2.35;1215.75;0.00;0.00;0.62;;;;;13.90;1.00;;;;;;2292074;55;3650;-89
2023/04/16 02:36:01;1496638.00;4.99;2636.80;85893.00;0.29;149.22;;;;;13.90;1.00;;;;;;2288274;56;3579;-87
2023/04/16 02:38:28;1592797.00;5.31;2818.98;59089.00;0.20;102.90;;;;;13.90;1.00;;;;;;2283991;60;1605;-89
2023/04/16 02:40:55;1329888.00;4.43;2326.91;41350.00;0.14;72.22;;;;;13.80;1.00;;;;;;2284328;39;3776;-88
2023/04/16 02:43:22;1070527.00;3.57;1857.80;29943.00;0.10;52.48;;;;;13.80;1.00;;;;;;2301408;56;3781;-90
2023/04/16 02:45:50;1382439.00;4.61;2423.79;30785.00;0.10;53.94;;;;;13.90;1.00;;;;;;2288130;60;1617;-89
2023/04/16 02:48:17;930176.00;3.10;1609.18;91415.00;0.30;158.75;;;;;13.90;1.00;;;;;;2288221;60;2295;-89
2023/04/16 02:50:43;719329.00;2.40;1240.77;103113.00;0.34;178.94;;;;;13.80;1.00;;;;;;2288143;60;1024;-89
2023/04/16 02:53:12;420518.00;1.40;725.08;90416.00;0.30;157.03;;;;;13.80;1.00;;;;;;2288159;60;2008;-87
2023/04/16 02:55:39;472647.00;1.58;814.74;84794.00;0.28;147.32;;;;;13.70;1.00;;;;;;2288282;60;1520;-89
2023/04/16 02:58:07;453468.00;1.51;781.75;97323.00;0.32;168.95;;;;;13.70;1.00;;;;;;2288169;60;1710;-89
2023/04/16 03:00:34;643164.00;2.14;1108.81;97760.00;0.33;169.71;;;;;13.80;1.00;;;;;;2312742;56;3728;-89
2023/04/16 03:03:01;526165.00;1.75;906.88;90964.00;0.30;157.97;;;;;13.80;1.00;;;;;;2288352;60;1648;-88
2023/04/16 03:05:28;483139.00;1.61;832.80;0.00;0.00;0.62;;;;;13.70;1.00;;;;;;2288466;60;1579;-89
2023/04/16 03:07:56;332072.00;1.11;573.05;0.00;0.00;0.62;;;;;13.80;1.00;;;;;;2288376;60;943;-89
2023/04/16 03:10:25;521333.00;1.74;898.56;0.00;0.00;0.62;;;;;13.80;1.00;;;;;;2293204;40;3612;-88
2023/04/16 03:12:52;278564.00;0.93;481.07;0.00;0.00;0.62;;;;;13.70;1.00;;;;;;2303289;39;3600;-90
2023/04/16 03:15:20;305172.00;1.02;526.81;0.00;0.00;0.62;;;;;13.50;1.00;;;;;;2291831;56;3554;-89
2023/04/16 03:17:47;387738.00;1.29;668.73;0.00;0.00;0.62;;;;;13.40;1.00;;;;;;2287740;39;3619;-87
2023/04/16 03:20:15;496562.00;1.66;855.90;0.00;0.00;0.62;;;;;13.30;1.00;;;;;;2284284;39;3595;-89
2023/04/16 03:22:43;416970.00;1.39;718.98;0.00;0.00;0.62;;;;;13.40;1.00;;;;;;2288915;55;3840;-88
2023/04/16 03:25:10;472640.00;1.58;814.73;0.00;0.00;0.62;;;;;13.60;1.00;;;;;;2297629;40;3858;-89
2023/04/16 03:27:39;479187.00;1.60;826.00;0.00;0.00;0.62;;;;;13.80;1.00;;;;;;2267606;60;1804;-88
2023/04/16 03:30:07;342278.00;1.14;590.59;0.00;0.00;0.62;;;;;13.80;1.00;;;;;;2267534;60;1554;-87
2023/04/16 03:32:35;374937.00;1.25;646.72;0.00;0.00;0.62;;;;;13.70;1.00;;;;;;2288643;40;3736;-89
2023/04/16 03:35:02;300248.00;1.00;518.35;0.00;0.00;0.62;;;;;13.80;1.00;;;;;;2288172;60;1935;-88
2023/04/16 03:39:58;632137.00;2.11;1089.74;0.00;0.00;0.62;;;;;13.60;1.00;;;;;;2282160;61;1420;-89
2023/04/16 03:42:25;226994.00;0.76;392.38;0.00;0.00;0.62;;;;;13.70;1.00;;;;;;2280134;61;1526;-89
2023/04/16 03:44:54;231915.00;0.77;400.84;0.00;0.00;0.62;;;;;13.80;1.00;;;;;;2280211;61;1437;-89
2023/04/16 03:47:21;737435.00;2.46;1272.22;34047.00;0.11;59.59;;;;;13.80;1.00;;;;;;2280140;61;1164;-89
2023/04/16 03:49:48;1300398.00;4.33;2272.83;73590.00;0.25;127.96;;;;;13.80;1.00;;;;;;2280035;61;1749;-89
2023/04/16 03:52:15;1568471.00;5.23;2772.63;48181.00;0.16;84.04;;;;;13.70;1.00;;;;;;2285484;39;3612;-88
2023/04/16 03:54:43;1293247.00;4.31;2259.75;155762.00;0.52;269.74;;;;;13.70;1.00;;;;;;2291467;55;3736;-88
2023/04/16 03:59:39;120364200.00;401.21;70639872.00;82492.00;0.27;143.34;;;;;13.60;1.00;;;;;;2282416;61;1424;-89
2023/04/16 04:02:08;544140.00;1.81;937.86;96861.00;0.32;168.15;;;;;13.70;1.00;;;;;;2317955;40;3791;-89
2023/04/16 04:07:11;126320592.00;421.07;81665672.00;89947.00;0.30;156.22;;;;;13.60;1.00;;;;;;2282513;61;1234;-88
2023/04/16 04:09:38;450041.00;1.50;775.85;85507.00;0.29;148.55;;;;;13.40;1.00;;;;;;2285703;55;3758;-89
2023/04/16 04:12:05;117398504.00;391.33;65541476.00;80468.00;0.27;139.85;;;;;13.50;1.00;;;;;;2285012;60;1311;-89
2023/04/16 04:17:01;693518.00;2.31;1196.00;0.00;0.00;0.62;;;;;13.60;1.00;;;;;;2314262;56;3691;-89
2023/04/16 04:19:30;153629.00;0.51;266.06;0.00;0.00;0.62;;;;;13.80;1.00;;;;;;2289041;60;976;-87
2023/04/16 04:21:57;243316.00;0.81;420.45;0.00;0.00;0.62;;;;;13.50;1.00;;;;;;2288927;60;1256;-87
2023/04/16 04:24:24;190726.00;0.64;329.96;0.00;0.00;0.62;;;;;13.40;1.00;;;;;;2288928;60;1560;-87
2023/04/16 04:26:51;269188.00;0.90;464.95;0.00;0.00;0.62;;;;;13.50;1.00;;;;;;2289000;60;1708;-90
2023/04/16 04:29:18;166223.00;0.55;287.76;0.00;0.00;0.62;;;;;13.60;1.00;;;;;;2289002;60;1719;-86
2023/04/16 04:31:45;144758.00;0.48;250.77;0.00;0.00;0.62;;;;;13.60;1.00;;;;;;2288970;60;1292;-87
2023/04/16 04:34:12;188414.00;0.63;325.98;0.00;0.00;0.62;;;;;13.40;1.00;;;;;;2288909;60;1923;-86
2023/04/16 04:39:13;416964.00;1.39;718.97;0.00;0.00;0.62;;;;;13.20;1.00;;;;;;2278354;61;1344;-87
2023/04/16 04:41:40;299139.00;1.00;516.44;0.00;0.00;0.62;;;;;13.00;1.00;;;;;;2276656;61;1301;-88
2023/04/16 04:44:07;355071.00;1.18;612.58;0.00;0.00;0.62;;;;;13.00;1.00;;;;;;2297855;39;3765;-88
2023/04/16 04:46:37;328840.00;1.10;567.49;0.00;0.00;0.62;;;;;13.10;1.00;;;;;;2268189;60;1022;-89
2023/04/16 04:49:04;616537.00;2.06;1062.78;42566.00;0.14;74.33;;;;;13.10;1.00;;;;;;2268129;60;1574;-86
2023/04/16 04:51:31;1260506.00;4.20;2200.01;96915.00;0.32;168.25;;;;;12.70;1.00;;;;;;2290367;55;3763;-87
2023/04/16 04:53:59;1668734.00;5.56;2964.83;120021.00;0.40;208.12;;;;;12.60;1.00;;;;;;2288897;60;1911;-88
2023/04/16 04:56:28;1555798.00;5.19;2748.56;105309.00;0.35;182.73;;;;;12.60;1.00;;;;;;2288760;60;1142;-88
2023/04/16 04:58:55;1776253.00;5.92;3174.56;181719.00;0.61;314.45;;;;;12.70;1.00;;;;;;2288793;60;1042;-87
2023/04/16 05:01:22;531044.00;1.77;915.29;90388.00;0.30;156.98;;;;;12.70;1.00;;;;;;2293156;55;3774;-88
2023/04/16 05:03:49;515424.00;1.72;888.38;98769.00;0.33;171.45;;;;;12.80;1.00;;;;;;2288656;60;1020;-87
2023/04/16 05:06:17;550819.00;1.84;949.37;89587.00;0.30;155.59;;;;;12.60;1.00;;;;;;2288717;60;973;-86
2023/04/16 05:11:19;256383.00;0.85;442.93;0.00;0.00;0.62;;;;;12.90;1.00;;;;;;2321143;40;2007;-86
2023/04/16 05:13:48;354712.00;1.18;611.96;0.00;0.00;0.62;;;;;12.90;1.00;;;;;;2280484;61;1998;-86
2023/04/16 05:16:15;211510.00;0.71;365.73;0.00;0.00;0.62;;;;;13.10;1.00;;;;;;2280551;61;963;-86
2023/04/16 05:18:42;305691.00;1.02;527.70;0.00;0.00;0.62;;;;;12.80;1.00;;;;;;2280513;61;1172;-86
2023/04/16 05:23:39;718600.00;2.40;1239.51;0.00;0.00;0.62;;;;;12.90;1.00;;;;;;2282319;61;1392;-88
2023/04/16 05:26:06;228841.00;0.76;395.55;0.00;0.00;0.62;;;;;12.70;1.00;;;;;;2280613;61;1429;-89
2023/04/16 05:28:33;222180.00;0.74;384.09;0.00;0.00;0.62;;;;;12.30;1.00;;;;;;2280560;61;1497;-86
2023/04/16 05:31:02;346325.00;1.15;597.54;0.00;0.00;0.62;;;;;12.30;1.00;;;;;;2280523;61;1016;-87
2023/04/16 05:33:30;328293.00;1.09;566.55;0.00;0.00;0.62;;;;;12.60;1.00;;;;;;2280316;61;1548;-88
2023/04/16 05:35:57;285006.00;0.95;492.14;0.00;0.00;0.62;;;;;13.00;1.00;;;;;;2335529;40;3635;-88
2023/04/16 05:38:24;265495.00;0.88;458.60;0.00;0.00;0.62;;;;;13.10;1.00;;;;;;2284590;60;989;-88
2023/04/16 05:40:51;285350.00;0.95;492.74;0.00;0.00;0.62;;;;;13.10;1.00;;;;;;2307659;39;3573;-88
2023/04/16 05:43:19;302037.00;1.01;521.42;0.00;0.00;0.62;;;;;13.30;1.00;;;;;;2287185;39;3657;-87
2023/04/16 05:45:45;246569.00;0.82;426.05;0.00;0.00;0.62;;;;;13.40;1.00;;;;;;2284613;60;1414;-87
2023/04/16 05:48:14;237920.00;0.79;411.17;0.00;0.00;0.62;;;;;13.30;1.00;;;;;;2284342;60;993;-88
2023/04/16 05:50:41;993080.00;3.31;1720.22;24624.00;0.08;43.28;;;;;13.10;1.00;;;;;;2284505;60;1209;-86
2023/04/16 05:53:09;1363725.00;4.55;2389.21;159496.00;0.53;276.17;;;;;13.00;1.00;;;;;;2284498;60;1281;-87
2023/04/16 05:55:37;1117888.00;3.73;1942.44;134074.00;0.45;232.35;;;;;12.80;1.00;;;;;;2284347;60;1911;-86
2023/04/16 05:58:04;1556838.00;5.19;2750.53;62618.00;0.21;109.00;;;;;12.90;1.00;;;;;;2284518;60;1025;-87
2023/04/16 06:00:31;1265073.00;4.22;2208.33;133372.00;0.44;231.14;;;;;12.90;1.00;;;;;;2284474;60;1729;-87
2023/04/16 06:05:35;721668.00;2.41;1244.83;85708.00;0.29;148.90;;;;;12.90;1.00;;;;;;2281971;61;1403;-87
2023/04/16 06:08:05;438919.00;1.46;756.72;90719.00;0.30;157.55;;;;;13.00;1.00;;;;;;2280469;61;1026;-88
2023/04/16 06:10:32;399062.00;1.33;688.19;95838.00;0.32;166.39;;;;;13.00;1.00;;;;;;2280264;61;1421;-88
2023/04/16 06:12:59;192383.00;0.64;332.81;0.00;0.00;0.62;;;;;12.90;1.00;;;;;;2280257;61;1568;-88
2023/04/16 06:15:27;242658.00;0.81;419.32;0.00;0.00;0.62;;;;;12.80;1.00;;;;;;2280429;61;1996;-88
2023/04/16 06:17:56;444711.00;1.48;766.69;0.00;0.00;0.62;;;;;12.80;1.00;;;;;;2294492;39;3736;-90
2023/04/16 06:20:23;207112.00;0.69;358.16;0.00;0.00;0.62;;;;;13.00;1.00;;;;;;2306989;39;3598;-89
2023/04/16 06:22:51;324366.00;1.08;559.80;0.00;0.00;0.62;;;;;13.00;1.00;;;;;;2303880;39;3646;-87
2023/04/16 06:25:18;118132.00;0.39;204.86;0.00;0.00;0.62;;;;;12.10;1.00;;;;;;2284609;60;1046;-86
2023/04/16 06:27:45;303306.00;1.01;523.60;0.00;0.00;0.62;;;;;12.10;1.00;;;;;;2284482;60;1674;-86
2023/04/16 06:30:15;297367.00;0.99;513.39;0.00;0.00;0.62;;;;;12.50;1.00;;;;;;2284459;60;1389;-87
2023/04/16 06:32:43;434319.00;1.45;748.81;0.00;0.00;0.62;;;;;12.80;1.00;;;;;;2284145;60;1388;-87
2023/04/16 06:35:10;371955.00;1.24;641.60;0.00;0.00;0.62;;;;;12.80;1.00;;;;;;2284379;60;2001;-89
2023/04/16 06:37:38;425507.00;1.42;733.66;0.00;0.00;0.62;;;;;12.50;1.00;;;;;;2289933;39;3594;-89
2023/04/16 06:40:08;265459.00;0.88;458.54;0.00;0.00;0.62;;;;;12.20;1.00;;;;;;2287889;55;3874;-89
2023/04/16 06:42:35;290391.00;0.97;501.40;0.00;0.00;0.62;;;;;12.60;1.00;;;;;;2284218;60;1386;-88
2023/04/16 06:45:02;186531.00;0.62;322.74;0.00;0.00;0.62;;;;;12.20;1.00;;;;;;2284293;60;1548;-87
2023/04/16 06:49:57;696063.00;2.32;1200.41;0.00;0.00;0.62;;;;;12.30;1.00;;;;;;2282458;61;1415;-86
2023/04/16 06:52:24;117151040.00;390.50;65127528.00;0.00;0.00;0.62;;;;;12.20;1.00;;;;;;2280440;61;1368;-85
2023/04/16 06:54:51;223826.00;0.75;386.93;0.00;0.00;0.62;;;;;12.10;1.00;;;;;;2280246;61;1925;-87
2023/04/16 06:57:19;324491.00;1.08;560.02;0.00;0.00;0.62;;;;;12.30;1.00;;;;;;2280312;61;1600;-88
2023/04/16 06:59:46;336131.00;1.12;580.02;0.00;0.00;0.62;;;;;12.40;1.00;;;;;;2323119;56;3751;-87
2023/04/16 07:02:13;230043.00;0.77;397.62;0.00;0.00;0.62;;;;;12.60;1.00;;;;;;2284293;60;1426;-85
2023/04/16 07:04:40;326328.00;1.09;563.17;0.00;0.00;0.62;;;;;12.70;1.00;;;;;;2284443;60;1087;-86
2023/04/16 07:07:08;404243.00;1.35;697.10;0.00;0.00;0.62;;;;;12.80;1.00;;;;;;2284436;60;1789;-88
2023/04/16 07:09:37;347804.00;1.16;600.09;0.00;0.00;0.62;;;;;12.70;1.00;;;;;;2284422;60;994;-84
2023/04/16 07:12:04;313186.00;1.04;540.59;0.00;0.00;0.62;;;;;12.40;1.00;;;;;;2284272;60;1340;-86
2023/04/16 07:14:32;193422.00;0.64;334.60;0.00;0.00;0.62;;;;;12.60;1.00;;;;;;2284470;60;1998;-87
2023/04/16 07:16:59;185314.00;0.62;320.64;0.00;0.00;0.62;;;;;12.50;1.00;;;;;;2284335;60;1587;-86
2023/04/16 07:19:31;644485.00;2.15;1111.10;48743.00;0.16;85.01;;;;;12.30;1.00;;;;;;2284276;60;1736;-86
2023/04/16 07:21:58;599212.00;2.00;1032.86;62147.00;0.21;108.19;;;;;11.90;1.00;;;;;;2284391;60;1483;-87
2023/04/16 07:24:26;949253.00;3.16;1642.79;84155.00;0.28;146.21;;;;;12.10;1.00;;;;;;2284232;60;989;-87
2023/04/16 07:26:52;1465474.00;4.88;2578.32;91280.00;0.30;158.52;;;;;11.90;1.00;;;;;;2284222;60;1555;-87
2023/04/16 07:29:19;1260240.00;4.20;2199.52;44987.00;0.15;78.52;;;;;12.10;1.00;;;;;;2285125;60;1018;-85
2023/04/16 07:31:48;1584493.00;5.28;2803.14;153325.00;0.51;265.54;;;;;12.00;1.00;;;;;;2285004;60;1539;-86
2023/04/16 07:34:15;1089380.00;3.63;1891.44;12508.00;0.04;22.29;;;;;12.00;1.00;;;;;;2284969;60;1673;-87
2023/04/16 07:36:42;1231658.00;4.11;2147.56;76363.00;0.25;132.75;;;;;12.50;1.00;;;;;;2285020;60;1701;-86
2023/04/16 07:39:11;2116912.00;7.06;3867.21;180858.00;0.60;312.97;;;;;12.70;1.00;;;;;;2285037;60;1409;-86
2023/04/16 07:41:39;1323099.00;4.41;2314.44;139270.00;0.46;241.31;;;;;13.10;1.00;;;;;;2293979;55;3771;-87
2023/04/16 07:44:06;468205.00;1.56;807.10;96482.00;0.32;167.50;;;;;13.20;1.00;;;;;;2285706;61;967;-86
2023/04/16 07:46:33;357939.00;1.19;617.51;87513.00;0.29;152.01;;;;;13.40;1.00;;;;;;2285733;61;1578;-88
2023/04/16 07:49:02;291382.00;0.97;503.11;95310.00;0.32;165.48;;;;;13.20;1.00;;;;;;2285794;61;884;-87
2023/04/16 07:51:30;473002.00;1.58;815.36;87773.00;0.29;152.46;;;;;13.00;1.00;;;;;;2285043;60;1621;-88
2023/04/16 07:53:57;443677.00;1.48;764.91;88388.00;0.29;153.52;;;;;13.10;1.00;;;;;;2285137;60;1115;-87
2023/04/16 07:56:24;477998.00;1.59;823.95;90497.00;0.30;157.17;;;;;13.10;1.00;;;;;;2284978;60;1925;-87
2023/04/16 07:58:51;398665.00;1.33;687.51;79916.00;0.27;138.89;;;;;13.00;1.00;;;;;;2285186;60;996;-88
2023/04/16 08:06:35;474150.00;1.58;817.33;85013.00;0.28;147.70;;;;;12.90;1.00;;;;;;2284810;60;2028;-85
2023/04/16 08:09:02;187201.00;0.62;323.89;0.00;0.00;0.62;;;;;12.60;1.00;;;;;;2284975;60;1066;-86
2023/04/16 08:11:29;216393.00;0.72;374.14;0.00;0.00;0.62;;;;;12.50;1.00;;;;;;2285057;60;1279;-87
2023/04/16 08:13:56;188643.00;0.63;326.37;0.00;0.00;0.62;;;;;12.80;1.00;;;;;;2284991;60;1793;-85
2023/04/16 08:16:23;277345.00;0.92;478.97;0.00;0.00;0.62;;;;;13.00;1.00;;;;;;2284948;60;1934;-87
2023/04/16 08:18:50;294283.00;0.98;508.09;0.00;0.00;0.62;;;;;12.90;1.00;;;;;;2284892;60;1050;-87
2023/04/16 08:21:17;207371.00;0.69;358.61;0.00;0.00;0.62;;;;;13.20;1.00;;;;;;2285023;60;1052;-86
2023/04/16 08:23:45;482681.00;1.61;832.01;1985.00;0.01;4.06;;;;;12.90;1.00;;;;;;2284844;60;1545;-87
2023/04/16 08:26:12;161238.00;0.54;279.17;0.00;0.00;0.62;;;;;13.10;1.00;;;;;;2284894;60;1092;-87
2023/04/16 08:28:39;238739.00;0.80;412.58;0.00;0.00;0.62;;;;;13.30;1.00;;;;;;2285009;60;1008;-87
2023/04/16 08:31:06;148858.00;0.50;257.84;0.00;0.00;0.62;;;;;13.40;1.00;;;;;;2287600;55;3755;-87
2023/04/16 08:33:33;472365.00;1.57;814.26;0.00;0.00;0.62;;;;;13.40;1.00;;;;;;2268282;60;1434;-86
2023/04/16 08:36:01;282107.00;0.94;487.16;0.00;0.00;0.62;;;;;13.20;1.00;;;;;;2268279;60;1996;-87
2023/04/16 08:38:28;222355.00;0.74;384.40;0.00;0.00;0.62;;;;;13.20;1.00;;;;;;2268183;60;1105;-87
2023/04/16 08:40:58;149275.00;0.50;258.56;0.00;0.00;0.62;;;;;12.80;1.00;;;;;;2268264;60;1699;-87
2023/04/16 08:45:58;586603.00;1.96;1011.09;0.00;0.00;0.62;;;;;12.80;1.00;;;;;;2271885;40;3488;-87
2023/04/16 08:48:25;449668.00;1.50;775.21;0.00;0.00;0.62;;;;;12.50;1.00;;;;;;2272402;60;1539;-86
2023/04/16 08:50:53;301994.00;1.01;521.35;0.00;0.00;0.62;;;;;12.20;1.00;;;;;;2291638;39;3570;-87
2023/04/16 08:53:29;240475.00;0.80;415.57;0.00;0.00;0.62;;;;;12.20;1.00;;;;;;2290395;39;3628;-87
2023/04/16 08:56:03;211268.00;0.70;365.32;0.00;0.00;0.62;;;;;12.40;1.00;;;;;;2284863;60;1909;-87
2023/04/16 08:58:34;365040.00;1.22;629.71;0.00;0.00;0.62;;;;;12.80;1.00;;;;;;2284458;60;1020;-86
2023/04/16 09:01:03;295553.00;0.99;510.28;0.00;0.00;0.62;;;;;12.90;1.00;;;;;;2290407;39;3573;-87
2023/04/16 09:03:32;362977.00;1.21;626.17;0.00;0.00;0.62;;;;;12.90;1.00;;;;;;2284782;60;1321;-86
2023/04/16 09:06:01;58879.00;0.20;102.54;0.00;0.00;0.62;;;;;13.10;1.00;;;;;;2284933;60;1023;-86
2023/04/16 09:08:29;364859.00;1.22;629.40;0.00;0.00;0.62;;;;;13.30;1.00;;;;;;2284824;60;1533;-86
2023/04/16 09:11:00;668679.00;2.23;1152.97;6913.00;0.02;12.60;;;;;13.50;1.00;;;;;;2284827;60;937;-88
2023/04/16 09:13:27;1156294.00;3.85;2011.40;25314.00;0.08;44.47;;;;;13.20;1.00;;;;;;2292175;56;3755;-86
2023/04/16 09:15:55;1251273.00;4.17;2183.20;116098.00;0.39;201.35;;;;;12.60;1.00;;;;;;2284681;60;2005;-86
2023/04/16 09:18:23;1446170.00;4.82;2542.23;177535.00;0.59;307.24;;;;;12.70;1.00;;;;;;2284828;60;959;-87
2023/04/16 09:20:51;1432478.00;4.77;2516.70;67651.00;0.23;117.70;;;;;12.90;1.00;;;;;;2284914;60;924;-87
2023/04/16 09:23:18;1618268.00;5.39;2867.70;133096.00;0.44;230.67;;;;;12.90;1.00;;;;;;2284761;60;2291;-86
2023/04/16 09:25:45;1212334.00;4.04;2112.54;193482.00;0.64;334.70;;;;;13.30;1.00;;;;;;2284798;60;1693;-87
2023/04/16 09:28:40;1147166.00;3.82;1994.98;155324.00;0.52;268.98;;;;;13.30;1.00;;;;;;2284711;60;997;-86
2023/04/16 09:31:09;911241.00;3.04;1575.87;56012.00;0.19;97.58;;;;;13.60;1.00;;;;;;2284789;60;1121;-87
2023/04/16 09:33:36;1098223.00;3.66;1907.25;76475.00;0.25;132.95;;;;;13.80;1.00;;;;;;2284789;60;1442;-87
2023/04/16 09:36:03;1416531.00;4.72;2487.02;139669.00;0.47;242.00;;;;;13.80;1.00;;;;;;2284780;60;1913;-86
2023/04/16 09:38:48;961046.00;3.20;1663.60;204311.00;0.68;353.34;;;;;14.00;1.00;;;;;;2284837;60;1117;-88
2023/04/16 09:41:16;1447039.00;4.82;2543.85;85554.00;0.29;148.63;;;;;14.30;1.00;;;;;;2284826;60;977;-87
2023/04/16 09:43:53;1814280.00;6.05;3249.69;249221.00;0.83;430.61;;;;;14.50;1.00;;;;;;2284829;60;1281;-88
2023/04/16 09:46:20;1778277.00;5.93;3178.55;169612.00;0.57;293.60;;;;;14.50;1.00;;;;;;2284675;60;1478;-87
2023/04/16 09:48:47;1244989.00;4.15;2171.78;115920.00;0.39;201.04;;;;;14.20;1.00;;;;;;2284816;60;943;-87
2023/04/16 09:51:14;1469802.00;4.90;2586.43;228397.00;0.76;394.79;;;;;14.10;1.00;;;;;;2284601;60;920;-87
2023/04/16 09:53:41;861011.00;2.87;1487.74;110395.00;0.37;191.51;;;;;14.30;1.00;;;;;;2284704;60;1402;-87
2023/04/16 09:56:09;275258.00;0.92;475.38;84127.00;0.28;146.17;;;;;14.20;1.00;;;;;;2284633;60;1988;-87
2023/04/16 09:58:37;265351.00;0.88;458.35;0.00;0.00;0.62;;;;;14.20;1.00;;;;;;2284555;60;1018;-87
2023/04/16 10:01:08;183748.00;0.61;317.94;0.00;0.00;0.62;;;;;14.00;1.00;;;;;;2284685;60;1450;-86
2023/04/16 10:03:37;170783.00;0.57;295.62;0.00;0.00;0.62;;;;;13.90;1.00;;;;;;2284744;60;1387;-87
2023/04/16 10:06:18;141245.00;0.47;244.72;0.00;0.00;0.62;;;;;14.20;1.00;;;;;;2284599;60;2167;-88
2023/04/16 10:08:47;107252.00;0.36;186.09;0.00;0.00;0.62;;;;;14.40;1.00;;;;;;2284738;60;1032;-88
2023/04/16 10:11:14;134012.00;0.45;232.25;0.00;0.00;0.62;;;;;14.50;1.00;;;;;;2284733;60;1038;-88
2023/04/16 10:13:41;300211.00;1.00;518.28;0.00;0.00;0.62;;;;;14.70;1.00;;;;;;2287845;60;1289;-86
2023/04/16 10:16:10;110549.00;0.37;191.78;0.00;0.00;0.62;;;;;14.40;1.00;;;;;;2288610;60;1919;-87
2023/04/16 10:18:38;300753.00;1.00;519.21;0.00;0.00;0.62;;;;;13.80;1.00;;;;;;2288667;60;943;-86
2023/04/16 10:21:06;177988.00;0.59;308.02;0.00;0.00;0.62;;;;;13.60;1.00;;;;;;2288710;60;1136;-86
2023/04/16 10:23:34;99411.00;0.33;172.56;0.00;0.00;0.62;;;;;13.90;1.00;;;;;;2288728;60;1297;-88
2023/04/16 10:26:03;252306.00;0.84;435.92;0.00;0.00;0.62;;;;;14.30;1.00;;;;;;2298706;55;3746;-86
2023/04/16 10:28:31;222220.00;0.74;384.16;0.00;0.00;0.62;;;;;13.90;1.00;;;;;;2280455;61;1705;-87
2023/04/16 10:30:58;591525.00;1.97;1019.59;43922.00;0.15;76.67;;;;;14.10;1.00;;;;;;2294620;55;3767;-88
2023/04/16 10:33:29;764966.00;2.55;1320.09;33291.00;0.11;58.28;;;;;14.20;1.00;;;;;;2284547;60;1385;-87